sensor_id;sensor_type;location;lat;lon;timestamp;P1;durP1;ratioP1;P2;durP2;ratioP2
77298;SDS011;66361;52.034;20.656;2023-09-18T00:03:47;13.50;;;10.18;;
77298;SDS011;66361;52.034;20.656;2023-09-18T00:07:50;14.88;;;10.00;;
77298;SDS011;66361;52.034;20.656;2023-09-18T00:11:53;14.38;;;9.30;;
77298;SDS011;66361;52.034;20.656;2023-09-18T00:15:57;10.93;;;8.68;;
77298;SDS011;66361;52.034;20.656;2023-09-18T00:20:02;12.05;;;8.13;;
77298;SDS011;66361;52.034;20.656;2023-09-18T00:24:09;7.85;;;7.05;;
77298;SDS011;66361;52.034;20.656;2023-09-18T00:28:13;8.15;;;6.65;;
77298;SDS011;66361;52.034;20.656;2023-09-18T00:32:18;9.93;;;8.55;;
77298;SDS011;66361;52.034;20.656;2023-09-18T00:36:23;11.40;;;7.90;;
77298;SDS011;66361;52.034;20.656;2023-09-18T00:40:26;11.55;;;8.63;;
77298;SDS011;66361;52.034;20.656;2023-09-18T00:44:28;13.77;;;9.55;;
77298;SDS011;66361;52.034;20.656;2023-09-18T00:48:32;13.18;;;10.18;;
77298;SDS011;66361;52.034;20.656;2023-09-18T00:52:37;19.30;;;10.70;;
77298;SDS011;66361;52.034;20.656;2023-09-18T00:56:40;14.55;;;9.70;;
77298;SDS011;66361;52.034;20.656;2023-09-18T01:00:44;16.13;;;10.15;;
77298;SDS011;66361;52.034;20.656;2023-09-18T01:04:47;14.55;;;10.38;;
77298;SDS011;66361;52.034;20.656;2023-09-18T01:08:53;17.02;;;9.68;;
77298;SDS011;66361;52.034;20.656;2023-09-18T01:13:00;13.63;;;9.07;;
77298;SDS011;66361;52.034;20.656;2023-09-18T01:17:10;16.70;;;10.07;;
77298;SDS011;66361;52.034;20.656;2023-09-18T01:21:15;15.02;;;9.50;;
77298;SDS011;66361;52.034;20.656;2023-09-18T01:25:19;12.32;;;8.50;;
77298;SDS011;66361;52.034;20.656;2023-09-18T01:29:23;12.07;;;7.93;;
77298;SDS011;66361;52.034;20.656;2023-09-18T01:37:30;10.25;;;7.75;;
77298;SDS011;66361;52.034;20.656;2023-09-18T01:41:35;11.38;;;8.32;;
77298;SDS011;66361;52.034;20.656;2023-09-18T01:45:39;10.23;;;8.93;;
77298;SDS011;66361;52.034;20.656;2023-09-18T01:49:43;12.27;;;7.90;;
77298;SDS011;66361;52.034;20.656;2023-09-18T01:53:47;11.68;;;8.30;;
77298;SDS011;66361;52.034;20.656;2023-09-18T01:57:56;10.65;;;7.85;;
77298;SDS011;66361;52.034;20.656;2023-09-18T02:02:00;10.63;;;7.80;;
77298;SDS011;66361;52.034;20.656;2023-09-18T02:06:05;10.55;;;8.45;;
77298;SDS011;66361;52.034;20.656;2023-09-18T02:10:09;11.15;;;8.77;;
77298;SDS011;66361;52.034;20.656;2023-09-18T02:14:15;10.65;;;8.30;;
77298;SDS011;66361;52.034;20.656;2023-09-18T02:18:18;10.85;;;7.78;;
77298;SDS011;66361;52.034;20.656;2023-09-18T02:22:21;13.60;;;8.65;;
77298;SDS011;66361;52.034;20.656;2023-09-18T02:26:25;9.05;;;7.78;;
77298;SDS011;66361;52.034;20.656;2023-09-18T02:34:31;9.75;;;7.60;;
77298;SDS011;66361;52.034;20.656;2023-09-18T02:38:35;8.30;;;7.35;;
77298;SDS011;66361;52.034;20.656;2023-09-18T02:42:38;8.75;;;7.18;;
77298;SDS011;66361;52.034;20.656;2023-09-18T02:46:43;8.60;;;7.05;;
77298;SDS011;66361;52.034;20.656;2023-09-18T02:50:46;9.18;;;7.70;;
77298;SDS011;66361;52.034;20.656;2023-09-18T02:54:49;9.73;;;7.43;;
77298;SDS011;66361;52.034;20.656;2023-09-18T02:58:52;10.80;;;9.45;;
77298;SDS011;66361;52.034;20.656;2023-09-18T03:02:57;9.23;;;7.28;;
77298;SDS011;66361;52.034;20.656;2023-09-18T03:07:00;10.93;;;7.75;;
77298;SDS011;66361;52.034;20.656;2023-09-18T03:11:02;10.18;;;8.45;;
77298;SDS011;66361;52.034;20.656;2023-09-18T03:15:06;9.38;;;7.43;;
77298;SDS011;66361;52.034;20.656;2023-09-18T03:19:11;9.50;;;7.75;;
77298;SDS011;66361;52.034;20.656;2023-09-18T03:23:15;9.50;;;7.72;;
77298;SDS011;66361;52.034;20.656;2023-09-18T03:27:18;11.27;;;8.07;;
77298;SDS011;66361;52.034;20.656;2023-09-18T03:35:28;8.52;;;6.88;;
77298;SDS011;66361;52.034;20.656;2023-09-18T03:39:31;8.85;;;7.75;;
77298;SDS011;66361;52.034;20.656;2023-09-18T03:43:34;9.73;;;8.38;;
77298;SDS011;66361;52.034;20.656;2023-09-18T03:47:38;11.00;;;8.63;;
77298;SDS011;66361;52.034;20.656;2023-09-18T03:51:43;10.70;;;7.72;;
77298;SDS011;66361;52.034;20.656;2023-09-18T03:55:47;11.10;;;7.28;;
77298;SDS011;66361;52.034;20.656;2023-09-18T03:59:50;9.68;;;8.05;;
77298;SDS011;66361;52.034;20.656;2023-09-18T04:03:53;9.18;;;7.93;;
77298;SDS011;66361;52.034;20.656;2023-09-18T04:07:59;10.07;;;7.45;;
77298;SDS011;66361;52.034;20.656;2023-09-18T04:12:02;8.88;;;7.28;;
77298;SDS011;66361;52.034;20.656;2023-09-18T04:16:07;9.85;;;6.68;;
77298;SDS011;66361;52.034;20.656;2023-09-18T04:20:10;11.95;;;8.10;;
77298;SDS011;66361;52.034;20.656;2023-09-18T04:24:16;11.88;;;8.07;;
77298;SDS011;66361;52.034;20.656;2023-09-18T04:28:19;11.38;;;8.40;;
77298;SDS011;66361;52.034;20.656;2023-09-18T04:32:24;10.45;;;7.82;;
77298;SDS011;66361;52.034;20.656;2023-09-18T04:36:27;9.98;;;7.68;;
77298;SDS011;66361;52.034;20.656;2023-09-18T04:40:31;10.15;;;8.60;;
77298;SDS011;66361;52.034;20.656;2023-09-18T04:44:34;10.68;;;9.13;;
77298;SDS011;66361;52.034;20.656;2023-09-18T04:48:37;10.05;;;8.63;;
77298;SDS011;66361;52.034;20.656;2023-09-18T04:52:42;12.13;;;8.10;;
77298;SDS011;66361;52.034;20.656;2023-09-18T04:56:47;11.38;;;8.10;;
77298;SDS011;66361;52.034;20.656;2023-09-18T05:00:53;10.60;;;7.95;;
77298;SDS011;66361;52.034;20.656;2023-09-18T05:04:57;11.00;;;8.07;;
77298;SDS011;66361;52.034;20.656;2023-09-18T05:09:00;11.68;;;8.23;;
77298;SDS011;66361;52.034;20.656;2023-09-18T05:13:06;10.88;;;8.82;;
77298;SDS011;66361;52.034;20.656;2023-09-18T05:17:09;10.18;;;7.68;;
77298;SDS011;66361;52.034;20.656;2023-09-18T05:21:13;9.93;;;8.05;;
77298;SDS011;66361;52.034;20.656;2023-09-18T05:25:16;12.02;;;8.38;;
77298;SDS011;66361;52.034;20.656;2023-09-18T05:29:21;10.18;;;7.97;;
77298;SDS011;66361;52.034;20.656;2023-09-18T05:33:24;10.38;;;7.93;;
77298;SDS011;66361;52.034;20.656;2023-09-18T05:37:27;10.00;;;8.25;;
77298;SDS011;66361;52.034;20.656;2023-09-18T05:41:30;11.95;;;7.28;;
77298;SDS011;66361;52.034;20.656;2023-09-18T05:45:35;12.20;;;8.45;;
77298;SDS011;66361;52.034;20.656;2023-09-18T05:49:38;14.23;;;8.07;;
77298;SDS011;66361;52.034;20.656;2023-09-18T05:53:41;13.35;;;6.95;;
77298;SDS011;66361;52.034;20.656;2023-09-18T05:57:44;10.68;;;7.03;;
77298;SDS011;66361;52.034;20.656;2023-09-18T06:01:49;7.80;;;7.00;;
77298;SDS011;66361;52.034;20.656;2023-09-18T06:05:52;7.97;;;6.55;;
77298;SDS011;66361;52.034;20.656;2023-09-18T06:09:55;7.70;;;6.65;;
77298;SDS011;66361;52.034;20.656;2023-09-18T06:13:58;7.47;;;6.68;;
77298;SDS011;66361;52.034;20.656;2023-09-18T06:18:03;6.68;;;6.00;;
77298;SDS011;66361;52.034;20.656;2023-09-18T06:22:08;7.10;;;6.32;;
77298;SDS011;66361;52.034;20.656;2023-09-18T06:26:11;7.88;;;6.05;;
77298;SDS011;66361;52.034;20.656;2023-09-18T06:30:15;8.02;;;6.70;;
77298;SDS011;66361;52.034;20.656;2023-09-18T06:34:19;9.07;;;6.25;;
77298;SDS011;66361;52.034;20.656;2023-09-18T06:38:22;8.38;;;7.55;;
77298;SDS011;66361;52.034;20.656;2023-09-18T06:42:25;5.93;;;5.32;;
77298;SDS011;66361;52.034;20.656;2023-09-18T06:46:28;7.38;;;6.53;;
77298;SDS011;66361;52.034;20.656;2023-09-18T06:50:33;7.43;;;6.72;;
77298;SDS011;66361;52.034;20.656;2023-09-18T06:54:38;7.03;;;6.40;;
77298;SDS011;66361;52.034;20.656;2023-09-18T06:58:43;7.70;;;6.78;;
77298;SDS011;66361;52.034;20.656;2023-09-18T07:02:47;7.63;;;6.78;;
77298;SDS011;66361;52.034;20.656;2023-09-18T07:06:53;7.00;;;6.25;;
77298;SDS011;66361;52.034;20.656;2023-09-18T07:10:57;7.22;;;6.45;;
77298;SDS011;66361;52.034;20.656;2023-09-18T07:15:00;7.88;;;6.38;;
77298;SDS011;66361;52.034;20.656;2023-09-18T07:19:06;6.65;;;5.95;;
77298;SDS011;66361;52.034;20.656;2023-09-18T07:23:14;7.43;;;6.00;;
77298;SDS011;66361;52.034;20.656;2023-09-18T07:27:18;6.90;;;5.72;;
77298;SDS011;66361;52.034;20.656;2023-09-18T07:31:21;6.47;;;5.65;;
77298;SDS011;66361;52.034;20.656;2023-09-18T07:35:24;5.72;;;5.22;;
77298;SDS011;66361;52.034;20.656;2023-09-18T07:39:28;6.75;;;6.03;;
77298;SDS011;66361;52.034;20.656;2023-09-18T07:43:31;7.00;;;5.93;;
77298;SDS011;66361;52.034;20.656;2023-09-18T07:47:34;5.65;;;4.90;;
77298;SDS011;66361;52.034;20.656;2023-09-18T07:51:38;6.07;;;5.10;;
77298;SDS011;66361;52.034;20.656;2023-09-18T07:55:42;6.95;;;5.05;;
77298;SDS011;66361;52.034;20.656;2023-09-18T07:59:46;5.78;;;5.18;;
77298;SDS011;66361;52.034;20.656;2023-09-18T08:03:49;7.40;;;6.70;;
77298;SDS011;66361;52.034;20.656;2023-09-18T08:07:52;5.95;;;5.22;;
77298;SDS011;66361;52.034;20.656;2023-09-18T08:11:58;6.18;;;4.60;;
77298;SDS011;66361;52.034;20.656;2023-09-18T08:16:01;4.93;;;4.43;;
77298;SDS011;66361;52.034;20.656;2023-09-18T08:20:05;6.95;;;5.75;;
77298;SDS011;66361;52.034;20.656;2023-09-18T08:24:14;5.72;;;4.65;;
77298;SDS011;66361;52.034;20.656;2023-09-18T08:28:18;4.28;;;3.88;;
77298;SDS011;66361;52.034;20.656;2023-09-18T08:32:21;4.65;;;4.25;;
77298;SDS011;66361;52.034;20.656;2023-09-18T08:36:24;4.90;;;4.43;;
77298;SDS011;66361;52.034;20.656;2023-09-18T08:40:30;5.20;;;4.70;;
77298;SDS011;66361;52.034;20.656;2023-09-18T08:44:35;4.90;;;4.50;;
77298;SDS011;66361;52.034;20.656;2023-09-18T08:48:41;4.88;;;4.47;;
77298;SDS011;66361;52.034;20.656;2023-09-18T08:52:45;4.80;;;4.40;;
77298;SDS011;66361;52.034;20.656;2023-09-18T08:56:49;4.95;;;4.15;;
77298;SDS011;66361;52.034;20.656;2023-09-18T09:00:54;4.88;;;4.40;;
77298;SDS011;66361;52.034;20.656;2023-09-18T09:04:59;4.70;;;4.30;;
77298;SDS011;66361;52.034;20.656;2023-09-18T09:09:02;5.05;;;4.65;;
77298;SDS011;66361;52.034;20.656;2023-09-18T09:13:06;5.25;;;4.75;;
77298;SDS011;66361;52.034;20.656;2023-09-18T09:17:10;8.90;;;5.18;;
77298;SDS011;66361;52.034;20.656;2023-09-18T09:21:21;5.22;;;4.72;;
77298;SDS011;66361;52.034;20.656;2023-09-18T09:25:25;6.10;;;5.50;;
77298;SDS011;66361;52.034;20.656;2023-09-18T09:29:29;6.03;;;5.43;;
77298;SDS011;66361;52.034;20.656;2023-09-18T09:33:34;6.68;;;6.00;;
77298;SDS011;66361;52.034;20.656;2023-09-18T09:37:37;8.60;;;7.82;;
77298;SDS011;66361;52.034;20.656;2023-09-18T09:41:45;8.40;;;6.57;;
77298;SDS011;66361;52.034;20.656;2023-09-18T09:45:49;9.32;;;6.32;;
77298;SDS011;66361;52.034;20.656;2023-09-18T09:50:00;6.78;;;6.18;;
77298;SDS011;66361;52.034;20.656;2023-09-18T09:54:08;6.72;;;6.03;;
77298;SDS011;66361;52.034;20.656;2023-09-18T09:58:13;6.75;;;6.15;;
77298;SDS011;66361;52.034;20.656;2023-09-18T10:02:16;6.95;;;6.10;;
77298;SDS011;66361;52.034;20.656;2023-09-18T10:06:25;7.13;;;6.40;;
77298;SDS011;66361;52.034;20.656;2023-09-18T10:14:36;7.80;;;6.32;;
77298;SDS011;66361;52.034;20.656;2023-09-18T10:19:02;7.10;;;6.30;;
77298;SDS011;66361;52.034;20.656;2023-09-18T10:23:18;7.18;;;6.53;;
77298;SDS011;66361;52.034;20.656;2023-09-18T10:27:29;7.03;;;6.43;;
77298;SDS011;66361;52.034;20.656;2023-09-18T10:31:35;7.72;;;6.93;;
77298;SDS011;66361;52.034;20.656;2023-09-18T10:35:42;7.60;;;6.55;;
77298;SDS011;66361;52.034;20.656;2023-09-18T10:39:47;6.82;;;6.22;;
77298;SDS011;66361;52.034;20.656;2023-09-18T10:43:51;9.02;;;7.13;;
77298;SDS011;66361;52.034;20.656;2023-09-18T10:47:57;8.30;;;7.50;;
77298;SDS011;66361;52.034;20.656;2023-09-18T10:52:01;8.10;;;7.10;;
77298;SDS011;66361;52.034;20.656;2023-09-18T10:56:06;8.15;;;7.35;;
77298;SDS011;66361;52.034;20.656;2023-09-18T11:00:10;8.40;;;7.50;;
77298;SDS011;66361;52.034;20.656;2023-09-18T11:04:18;8.20;;;7.40;;
77298;SDS011;66361;52.034;20.656;2023-09-18T11:08:26;7.57;;;6.85;;
77298;SDS011;66361;52.034;20.656;2023-09-18T11:12:43;8.80;;;7.90;;
77298;SDS011;66361;52.034;20.656;2023-09-18T11:16:47;8.85;;;7.68;;
77298;SDS011;66361;52.034;20.656;2023-09-18T11:21:06;9.40;;;8.07;;
77298;SDS011;66361;52.034;20.656;2023-09-18T11:29:41;8.48;;;7.75;;
77298;SDS011;66361;52.034;20.656;2023-09-18T11:33:48;9.00;;;8.10;;
77298;SDS011;66361;52.034;20.656;2023-09-18T11:38:05;9.63;;;8.73;;
77298;SDS011;66361;52.034;20.656;2023-09-18T11:42:10;8.52;;;7.63;;
77298;SDS011;66361;52.034;20.656;2023-09-18T11:46:19;8.60;;;7.55;;
77298;SDS011;66361;52.034;20.656;2023-09-18T11:50:23;8.85;;;7.95;;
77298;SDS011;66361;52.034;20.656;2023-09-18T11:54:27;9.05;;;8.15;;
77298;SDS011;66361;52.034;20.656;2023-09-18T11:58:31;10.50;;;8.50;;
77298;SDS011;66361;52.034;20.656;2023-09-18T12:02:49;10.18;;;9.07;;
77298;SDS011;66361;52.034;20.656;2023-09-18T12:06:53;9.63;;;8.20;;
77298;SDS011;66361;52.034;20.656;2023-09-18T12:10:57;10.02;;;9.02;;
77298;SDS011;66361;52.034;20.656;2023-09-18T12:15:00;10.63;;;9.48;;
77298;SDS011;66361;52.034;20.656;2023-09-18T12:19:06;11.85;;;10.05;;
77298;SDS011;66361;52.034;20.656;2023-09-18T12:23:09;12.15;;;9.13;;
77298;SDS011;66361;52.034;20.656;2023-09-18T12:27:14;10.93;;;9.82;;
77298;SDS011;66361;52.034;20.656;2023-09-18T12:31:17;10.38;;;9.38;;
77298;SDS011;66361;52.034;20.656;2023-09-18T12:35:22;10.40;;;8.82;;
77298;SDS011;66361;52.034;20.656;2023-09-18T12:39:31;10.75;;;9.40;;
77298;SDS011;66361;52.034;20.656;2023-09-18T12:43:36;11.23;;;9.45;;
77298;SDS011;66361;52.034;20.656;2023-09-18T12:47:41;9.25;;;8.23;;
77298;SDS011;66361;52.034;20.656;2023-09-18T12:51:55;9.95;;;8.77;;
77298;SDS011;66361;52.034;20.656;2023-09-18T12:56:05;9.18;;;8.27;;
77298;SDS011;66361;52.034;20.656;2023-09-18T13:00:09;9.68;;;8.77;;
77298;SDS011;66361;52.034;20.656;2023-09-18T13:04:13;9.50;;;8.60;;
77298;SDS011;66361;52.034;20.656;2023-09-18T13:08:22;10.50;;;8.98;;
77298;SDS011;66361;52.034;20.656;2023-09-18T13:12:38;9.95;;;7.55;;
77298;SDS011;66361;52.034;20.656;2023-09-18T13:16:42;7.97;;;7.18;;
77298;SDS011;66361;52.034;20.656;2023-09-18T13:20:47;8.68;;;7.78;;
77298;SDS011;66361;52.034;20.656;2023-09-18T13:24:56;8.68;;;7.82;;
77298;SDS011;66361;52.034;20.656;2023-09-18T13:28:59;8.07;;;7.28;;
77298;SDS011;66361;52.034;20.656;2023-09-18T13:33:03;8.27;;;7.47;;
77298;SDS011;66361;52.034;20.656;2023-09-18T13:37:08;9.43;;;8.40;;
77298;SDS011;66361;52.034;20.656;2023-09-18T13:41:12;7.22;;;6.53;;
77298;SDS011;66361;52.034;20.656;2023-09-18T13:45:15;20.50;;;7.85;;
77298;SDS011;66361;52.034;20.656;2023-09-18T13:49:18;7.72;;;6.05;;
77298;SDS011;66361;52.034;20.656;2023-09-18T13:53:23;7.35;;;6.57;;
77298;SDS011;66361;52.034;20.656;2023-09-18T13:57:35;7.70;;;7.00;;
77298;SDS011;66361;52.034;20.656;2023-09-18T14:01:38;8.20;;;7.38;;
77298;SDS011;66361;52.034;20.656;2023-09-18T14:05:41;9.85;;;8.02;;
77298;SDS011;66361;52.034;20.656;2023-09-18T14:09:44;8.57;;;7.78;;
77298;SDS011;66361;52.034;20.656;2023-09-18T14:13:49;9.15;;;7.65;;
77298;SDS011;66361;52.034;20.656;2023-09-18T14:17:53;8.88;;;7.97;;
77298;SDS011;66361;52.034;20.656;2023-09-18T14:21:56;8.60;;;7.45;;
77298;SDS011;66361;52.034;20.656;2023-09-18T14:26:02;8.70;;;7.38;;
77298;SDS011;66361;52.034;20.656;2023-09-18T14:30:08;8.23;;;7.43;;
77298;SDS011;66361;52.034;20.656;2023-09-18T14:34:12;8.55;;;7.28;;
77298;SDS011;66361;52.034;20.656;2023-09-18T14:38:15;9.43;;;7.45;;
77298;SDS011;66361;52.034;20.656;2023-09-18T14:42:18;8.07;;;6.95;;
77298;SDS011;66361;52.034;20.656;2023-09-18T14:46:23;8.48;;;7.68;;
77298;SDS011;66361;52.034;20.656;2023-09-18T14:50:26;8.45;;;7.10;;
77298;SDS011;66361;52.034;20.656;2023-09-18T14:54:29;9.68;;;8.00;;
77298;SDS011;66361;52.034;20.656;2023-09-18T14:58:51;8.55;;;7.75;;
77298;SDS011;66361;52.034;20.656;2023-09-18T15:02:55;9.32;;;8.43;;
77298;SDS011;66361;52.034;20.656;2023-09-18T15:07:01;9.38;;;8.45;;
77298;SDS011;66361;52.034;20.656;2023-09-18T15:11:04;10.55;;;9.18;;
77298;SDS011;66361;52.034;20.656;2023-09-18T15:15:07;9.93;;;8.55;;
77298;SDS011;66361;52.034;20.656;2023-09-18T15:19:12;10.75;;;8.82;;
77298;SDS011;66361;52.034;20.656;2023-09-18T15:23:20;11.88;;;8.88;;
77298;SDS011;66361;52.034;20.656;2023-09-18T15:27:24;10.27;;;8.75;;
77298;SDS011;66361;52.034;20.656;2023-09-18T15:31:27;10.57;;;8.52;;
77298;SDS011;66361;52.034;20.656;2023-09-18T15:35:31;10.57;;;9.13;;
77298;SDS011;66361;52.034;20.656;2023-09-18T15:39:35;10.52;;;9.50;;
77298;SDS011;66361;52.034;20.656;2023-09-18T15:43:38;11.25;;;10.05;;
77298;SDS011;66361;52.034;20.656;2023-09-18T15:47:41;13.98;;;9.68;;
77298;SDS011;66361;52.034;20.656;2023-09-18T15:51:46;14.55;;;10.38;;
77298;SDS011;66361;52.034;20.656;2023-09-18T15:55:49;14.10;;;10.27;;
77298;SDS011;66361;52.034;20.656;2023-09-18T15:59:52;12.70;;;9.35;;
77298;SDS011;66361;52.034;20.656;2023-09-18T16:03:55;10.43;;;8.77;;
77298;SDS011;66361;52.034;20.656;2023-09-18T16:08:00;11.07;;;8.32;;
77298;SDS011;66361;52.034;20.656;2023-09-18T16:12:06;11.48;;;8.50;;
77298;SDS011;66361;52.034;20.656;2023-09-18T16:16:10;10.90;;;8.38;;
77298;SDS011;66361;52.034;20.656;2023-09-18T16:20:14;9.85;;;8.65;;
77298;SDS011;66361;52.034;20.656;2023-09-18T16:24:18;10.32;;;9.10;;
77298;SDS011;66361;52.034;20.656;2023-09-18T16:28:22;12.43;;;9.48;;
77298;SDS011;66361;52.034;20.656;2023-09-18T16:32:27;10.45;;;9.32;;
77298;SDS011;66361;52.034;20.656;2023-09-18T16:36:32;11.52;;;9.80;;
77298;SDS011;66361;52.034;20.656;2023-09-18T16:40:37;12.15;;;9.60;;
77298;SDS011;66361;52.034;20.656;2023-09-18T16:44:40;12.65;;;9.63;;
77298;SDS011;66361;52.034;20.656;2023-09-18T16:48:43;12.05;;;9.27;;
77298;SDS011;66361;52.034;20.656;2023-09-18T16:52:47;12.43;;;9.52;;
77298;SDS011;66361;52.034;20.656;2023-09-18T16:56:51;13.75;;;9.88;;
77298;SDS011;66361;52.034;20.656;2023-09-18T17:00:55;14.55;;;10.93;;
77298;SDS011;66361;52.034;20.656;2023-09-18T17:04:58;13.10;;;10.27;;
77298;SDS011;66361;52.034;20.656;2023-09-18T17:09:02;13.45;;;11.43;;
77298;SDS011;66361;52.034;20.656;2023-09-18T17:13:10;14.10;;;10.57;;
77298;SDS011;66361;52.034;20.656;2023-09-18T17:17:14;13.60;;;10.90;;
77298;SDS011;66361;52.034;20.656;2023-09-18T17:21:17;15.40;;;10.73;;
77298;SDS011;66361;52.034;20.656;2023-09-18T17:25:20;15.43;;;11.10;;
77298;SDS011;66361;52.034;20.656;2023-09-18T17:29:25;12.77;;;10.43;;
77298;SDS011;66361;52.034;20.656;2023-09-18T17:33:28;14.02;;;11.10;;
77298;SDS011;66361;52.034;20.656;2023-09-18T17:37:32;15.25;;;11.15;;
77298;SDS011;66361;52.034;20.656;2023-09-18T17:41:35;15.95;;;11.23;;
77298;SDS011;66361;52.034;20.656;2023-09-18T17:45:40;13.90;;;10.93;;
77298;SDS011;66361;52.034;20.656;2023-09-18T17:49:43;14.55;;;11.68;;
77298;SDS011;66361;52.034;20.656;2023-09-18T17:53:46;16.65;;;11.57;;
77298;SDS011;66361;52.034;20.656;2023-09-18T17:57:50;18.20;;;11.10;;
77298;SDS011;66361;52.034;20.656;2023-09-18T18:02:00;15.50;;;11.65;;
77298;SDS011;66361;52.034;20.656;2023-09-18T18:06:07;17.30;;;12.25;;
77298;SDS011;66361;52.034;20.656;2023-09-18T18:10:11;14.73;;;11.77;;
77298;SDS011;66361;52.034;20.656;2023-09-18T18:14:14;16.67;;;11.13;;
77298;SDS011;66361;52.034;20.656;2023-09-18T18:18:21;14.98;;;10.90;;
77298;SDS011;66361;52.034;20.656;2023-09-18T18:22:24;13.23;;;10.48;;
77298;SDS011;66361;52.034;20.656;2023-09-18T18:26:27;15.27;;;11.95;;
77298;SDS011;66361;52.034;20.656;2023-09-18T18:30:30;14.50;;;10.50;;
77298;SDS011;66361;52.034;20.656;2023-09-18T18:34:35;15.90;;;10.93;;
77298;SDS011;66361;52.034;20.656;2023-09-18T18:38:38;14.20;;;10.73;;
77298;SDS011;66361;52.034;20.656;2023-09-18T18:42:42;12.52;;;10.00;;
77298;SDS011;66361;52.034;20.656;2023-09-18T18:46:44;14.50;;;10.20;;
77298;SDS011;66361;52.034;20.656;2023-09-18T18:50:49;13.15;;;10.70;;
77298;SDS011;66361;52.034;20.656;2023-09-18T18:54:53;12.50;;;9.20;;
77298;SDS011;66361;52.034;20.656;2023-09-18T18:58:56;15.02;;;10.48;;
77298;SDS011;66361;52.034;20.656;2023-09-18T19:02:59;13.75;;;10.43;;
77298;SDS011;66361;52.034;20.656;2023-09-18T19:07:07;13.02;;;10.15;;
77298;SDS011;66361;52.034;20.656;2023-09-18T19:11:13;12.68;;;10.13;;
77298;SDS011;66361;52.034;20.656;2023-09-18T19:15:17;13.80;;;10.63;;
77298;SDS011;66361;52.034;20.656;2023-09-18T19:19:24;12.85;;;10.35;;
77298;SDS011;66361;52.034;20.656;2023-09-18T19:23:29;13.05;;;9.77;;
77298;SDS011;66361;52.034;20.656;2023-09-18T19:27:32;13.30;;;9.25;;
77298;SDS011;66361;52.034;20.656;2023-09-18T19:31:38;13.10;;;9.23;;
77298;SDS011;66361;52.034;20.656;2023-09-18T19:35:41;15.65;;;8.30;;
77298;SDS011;66361;52.034;20.656;2023-09-18T19:39:46;12.57;;;8.95;;
77298;SDS011;66361;52.034;20.656;2023-09-18T19:43:49;12.13;;;9.02;;
77298;SDS011;66361;52.034;20.656;2023-09-18T19:47:52;14.15;;;10.32;;
77298;SDS011;66361;52.034;20.656;2023-09-18T19:51:56;12.68;;;9.48;;
77298;SDS011;66361;52.034;20.656;2023-09-18T19:56:01;13.27;;;9.30;;
77298;SDS011;66361;52.034;20.656;2023-09-18T20:00:06;13.50;;;9.13;;
77298;SDS011;66361;52.034;20.656;2023-09-18T20:04:12;14.38;;;9.48;;
77298;SDS011;66361;52.034;20.656;2023-09-18T20:08:15;12.10;;;8.77;;
77298;SDS011;66361;52.034;20.656;2023-09-18T20:12:20;11.07;;;8.45;;
77298;SDS011;66361;52.034;20.656;2023-09-18T20:16:23;11.35;;;8.73;;
77298;SDS011;66361;52.034;20.656;2023-09-18T20:20:26;15.65;;;9.85;;
77298;SDS011;66361;52.034;20.656;2023-09-18T20:24:30;12.30;;;9.38;;
77298;SDS011;66361;52.034;20.656;2023-09-18T20:28:35;12.32;;;9.57;;
77298;SDS011;66361;52.034;20.656;2023-09-18T20:32:38;12.93;;;9.82;;
77298;SDS011;66361;52.034;20.656;2023-09-18T20:36:41;12.20;;;8.70;;
77298;SDS011;66361;52.034;20.656;2023-09-18T20:40:44;13.13;;;9.13;;
77298;SDS011;66361;52.034;20.656;2023-09-18T20:44:49;13.63;;;10.25;;
77298;SDS011;66361;52.034;20.656;2023-09-18T20:48:51;13.93;;;9.75;;
77298;SDS011;66361;52.034;20.656;2023-09-18T20:53:04;14.02;;;9.75;;
77298;SDS011;66361;52.034;20.656;2023-09-18T20:57:08;15.55;;;9.35;;
77298;SDS011;66361;52.034;20.656;2023-09-18T21:01:13;14.75;;;9.95;;
77298;SDS011;66361;52.034;20.656;2023-09-18T21:05:18;12.98;;;8.98;;
77298;SDS011;66361;52.034;20.656;2023-09-18T21:09:21;13.40;;;9.93;;
77298;SDS011;66361;52.034;20.656;2023-09-18T21:13:28;12.07;;;9.60;;
77298;SDS011;66361;52.034;20.656;2023-09-18T21:17:32;12.63;;;9.68;;
77298;SDS011;66361;52.034;20.656;2023-09-18T21:21:36;15.65;;;9.85;;
77298;SDS011;66361;52.034;20.656;2023-09-18T21:25:39;14.15;;;9.70;;
77298;SDS011;66361;52.034;20.656;2023-09-18T21:29:42;14.35;;;10.07;;
77298;SDS011;66361;52.034;20.656;2023-09-18T21:33:47;13.10;;;9.68;;
77298;SDS011;66361;52.034;20.656;2023-09-18T21:37:51;13.43;;;9.75;;
77298;SDS011;66361;52.034;20.656;2023-09-18T21:41:56;13.20;;;10.15;;
77298;SDS011;66361;52.034;20.656;2023-09-18T21:45:59;15.32;;;9.88;;
77298;SDS011;66361;52.034;20.656;2023-09-18T21:50:05;17.27;;;10.68;;
77298;SDS011;66361;52.034;20.656;2023-09-18T21:54:09;13.05;;;9.90;;
77298;SDS011;66361;52.034;20.656;2023-09-18T21:58:14;13.90;;;11.18;;
77298;SDS011;66361;52.034;20.656;2023-09-18T22:02:17;16.05;;;10.68;;
77298;SDS011;66361;52.034;20.656;2023-09-18T22:06:23;14.85;;;10.13;;
77298;SDS011;66361;52.034;20.656;2023-09-18T22:10:27;13.38;;;10.25;;
77298;SDS011;66361;52.034;20.656;2023-09-18T22:14:30;18.08;;;10.48;;
77298;SDS011;66361;52.034;20.656;2023-09-18T22:18:33;13.85;;;10.85;;
77298;SDS011;66361;52.034;20.656;2023-09-18T22:22:38;14.93;;;10.23;;
77298;SDS011;66361;52.034;20.656;2023-09-18T22:26:41;15.45;;;10.55;;
77298;SDS011;66361;52.034;20.656;2023-09-18T22:30:45;12.93;;;10.52;;
77298;SDS011;66361;52.034;20.656;2023-09-18T22:34:48;14.30;;;9.98;;
77298;SDS011;66361;52.034;20.656;2023-09-18T22:38:58;14.88;;;10.93;;
77298;SDS011;66361;52.034;20.656;2023-09-18T22:56:45;16.95;;;11.18;;
77298;SDS011;66361;52.034;20.656;2023-09-18T23:00:49;13.50;;;10.98;;
77298;SDS011;66361;52.034;20.656;2023-09-18T23:04:54;16.40;;;10.55;;
77298;SDS011;66361;52.034;20.656;2023-09-18T23:08:57;15.05;;;10.55;;
77298;SDS011;66361;52.034;20.656;2023-09-18T23:13:02;15.80;;;11.82;;
77298;SDS011;66361;52.034;20.656;2023-09-18T23:17:06;17.10;;;11.98;;
77298;SDS011;66361;52.034;20.656;2023-09-18T23:21:11;16.48;;;11.65;;
77298;SDS011;66361;52.034;20.656;2023-09-18T23:25:15;15.85;;;10.95;;
77298;SDS011;66361;52.034;20.656;2023-09-18T23:29:22;14.40;;;11.23;;
77298;SDS011;66361;52.034;20.656;2023-09-18T23:33:27;16.23;;;12.00;;
77298;SDS011;66361;52.034;20.656;2023-09-18T23:37:30;17.48;;;11.20;;
77298;SDS011;66361;52.034;20.656;2023-09-18T23:41:35;14.75;;;11.15;;
77298;SDS011;66361;52.034;20.656;2023-09-18T23:45:55;14.55;;;10.57;;
77298;SDS011;66361;52.034;20.656;2023-09-18T23:49:59;15.77;;;11.52;;
77298;SDS011;66361;52.034;20.656;2023-09-18T23:54:07;17.15;;;11.55;;
77298;SDS011;66361;52.034;20.656;2023-09-18T23:58:12;15.55;;;11.77;;
